sensor_id;sensor_type;location;lat;lon;timestamp;P1;durP1;ratioP1;P2;durP2;ratioP2
42018;SDS011;27703;51.980;5.848;2022-08-01T00:02:09;4.95;;;1.33;;
42018;SDS011;27703;51.980;5.848;2022-08-01T00:04:35;1.80;;;1.05;;
42018;SDS011;27703;51.980;5.848;2022-08-01T00:07:00;2.22;;;1.48;;
42018;SDS011;27703;51.980;5.848;2022-08-01T00:09:26;2.90;;;1.70;;
42018;SDS011;27703;51.980;5.848;2022-08-01T00:11:51;2.88;;;1.10;;
42018;SDS011;27703;51.980;5.848;2022-08-01T00:14:17;3.50;;;1.13;;
42018;SDS011;27703;51.980;5.848;2022-08-01T00:16:42;2.00;;;1.38;;
42018;SDS011;27703;51.980;5.848;2022-08-01T00:19:08;2.05;;;1.23;;
42018;SDS011;27703;51.980;5.848;2022-08-01T00:21:33;3.28;;;1.33;;
42018;SDS011;27703;51.980;5.848;2022-08-01T00:23:59;2.25;;;1.50;;
42018;SDS011;27703;51.980;5.848;2022-08-01T00:26:24;2.20;;;1.70;;
42018;SDS011;27703;51.980;5.848;2022-08-01T00:28:50;2.50;;;1.50;;
42018;SDS011;27703;51.980;5.848;2022-08-01T00:31:16;4.13;;;1.80;;
42018;SDS011;27703;51.980;5.848;2022-08-01T00:33:41;2.33;;;1.45;;
42018;SDS011;27703;51.980;5.848;2022-08-01T00:36:07;2.83;;;1.50;;
42018;SDS011;27703;51.980;5.848;2022-08-01T00:38:32;2.95;;;2.33;;
42018;SDS011;27703;51.980;5.848;2022-08-01T00:40:58;4.75;;;3.40;;
42018;SDS011;27703;51.980;5.848;2022-08-01T00:43:23;4.15;;;3.10;;
42018;SDS011;27703;51.980;5.848;2022-08-01T00:45:49;3.88;;;3.47;;
42018;SDS011;27703;51.980;5.848;2022-08-01T00:48:14;3.20;;;2.67;;
42018;SDS011;27703;51.980;5.848;2022-08-01T00:50:40;6.18;;;3.83;;
42018;SDS011;27703;51.980;5.848;2022-08-01T00:53:06;5.15;;;3.47;;
42018;SDS011;27703;51.980;5.848;2022-08-01T00:55:32;3.55;;;3.22;;
42018;SDS011;27703;51.980;5.848;2022-08-01T00:57:58;4.43;;;3.35;;
42018;SDS011;27703;51.980;5.848;2022-08-01T01:00:23;5.47;;;3.92;;
42018;SDS011;27703;51.980;5.848;2022-08-01T01:02:49;3.83;;;3.42;;
42018;SDS011;27703;51.980;5.848;2022-08-01T01:05:15;5.53;;;3.75;;
42018;SDS011;27703;51.980;5.848;2022-08-01T01:07:48;3.22;;;2.92;;
42018;SDS011;27703;51.980;5.848;2022-08-01T01:10:22;7.38;;;4.40;;
42018;SDS011;27703;51.980;5.848;2022-08-01T01:13:09;4.38;;;3.83;;
42018;SDS011;27703;51.980;5.848;2022-08-01T01:15:41;4.38;;;3.47;;
42018;SDS011;27703;51.980;5.848;2022-08-01T01:18:17;4.28;;;2.92;;
42018;SDS011;27703;51.980;5.848;2022-08-01T01:20:51;3.92;;;2.97;;
42018;SDS011;27703;51.980;5.848;2022-08-01T01:31:40;2.67;;;2.47;;
42018;SDS011;27703;51.980;5.848;2022-08-01T01:34:13;3.78;;;2.55;;
42018;SDS011;27703;51.980;5.848;2022-08-01T01:36:40;3.67;;;2.72;;
42018;SDS011;27703;51.980;5.848;2022-08-01T01:39:08;2.90;;;2.33;;
42018;SDS011;27703;51.980;5.848;2022-08-01T01:41:35;2.25;;;1.70;;
42018;SDS011;27703;51.980;5.848;2022-08-01T01:44:02;3.35;;;1.80;;
42018;SDS011;27703;51.980;5.848;2022-08-01T01:46:30;3.97;;;2.40;;
42018;SDS011;27703;51.980;5.848;2022-08-01T01:48:56;4.15;;;2.65;;
42018;SDS011;27703;51.980;5.848;2022-08-01T01:51:24;6.85;;;2.17;;
42018;SDS011;27703;51.980;5.848;2022-08-01T01:53:52;4.25;;;1.70;;
42018;SDS011;27703;51.980;5.848;2022-08-01T01:56:20;4.18;;;2.00;;
42018;SDS011;27703;51.980;5.848;2022-08-01T01:58:48;4.05;;;2.17;;
42018;SDS011;27703;51.980;5.848;2022-08-01T02:01:19;3.78;;;2.03;;
42018;SDS011;27703;51.980;5.848;2022-08-01T02:03:48;2.67;;;1.85;;
42018;SDS011;27703;51.980;5.848;2022-08-01T02:06:16;3.50;;;2.10;;
42018;SDS011;27703;51.980;5.848;2022-08-01T02:08:42;4.93;;;2.67;;
42018;SDS011;27703;51.980;5.848;2022-08-01T02:11:09;2.92;;;1.77;;
42018;SDS011;27703;51.980;5.848;2022-08-01T02:13:46;3.08;;;2.00;;
42018;SDS011;27703;51.980;5.848;2022-08-01T02:16:18;2.92;;;1.75;;
42018;SDS011;27703;51.980;5.848;2022-08-01T02:18:45;4.50;;;1.77;;
42018;SDS011;27703;51.980;5.848;2022-08-01T02:21:12;4.10;;;1.83;;
42018;SDS011;27703;51.980;5.848;2022-08-01T02:23:44;4.50;;;1.65;;
42018;SDS011;27703;51.980;5.848;2022-08-01T02:26:11;4.93;;;1.52;;
42018;SDS011;27703;51.980;5.848;2022-08-01T02:28:45;3.50;;;1.90;;
42018;SDS011;27703;51.980;5.848;2022-08-01T02:31:17;3.97;;;1.77;;
42018;SDS011;27703;51.980;5.848;2022-08-01T02:33:46;3.03;;;1.40;;
42018;SDS011;27703;51.980;5.848;2022-08-01T02:36:22;3.08;;;1.70;;
42018;SDS011;27703;51.980;5.848;2022-08-01T02:38:50;4.38;;;1.48;;
42018;SDS011;27703;51.980;5.848;2022-08-01T02:41:19;3.28;;;1.60;;
42018;SDS011;27703;51.980;5.848;2022-08-01T02:43:47;3.35;;;1.45;;
42018;SDS011;27703;51.980;5.848;2022-08-01T02:46:17;2.42;;;1.25;;
42018;SDS011;27703;51.980;5.848;2022-08-01T02:48:49;3.10;;;1.27;;
42018;SDS011;27703;51.980;5.848;2022-08-01T02:51:18;2.67;;;1.45;;
42018;SDS011;27703;51.980;5.848;2022-08-01T02:53:46;4.38;;;1.63;;
42018;SDS011;27703;51.980;5.848;2022-08-01T02:56:15;1.90;;;1.15;;
42018;SDS011;27703;51.980;5.848;2022-08-01T02:58:42;3.42;;;1.40;;
42018;SDS011;27703;51.980;5.848;2022-08-01T03:01:09;2.88;;;1.42;;
42018;SDS011;27703;51.980;5.848;2022-08-01T03:03:36;2.67;;;1.30;;
42018;SDS011;27703;51.980;5.848;2022-08-01T03:06:02;3.50;;;1.60;;
42018;SDS011;27703;51.980;5.848;2022-08-01T03:08:29;3.80;;;1.48;;
42018;SDS011;27703;51.980;5.848;2022-08-01T03:10:56;3.30;;;1.13;;
42018;SDS011;27703;51.980;5.848;2022-08-01T03:13:24;3.08;;;1.30;;
42018;SDS011;27703;51.980;5.848;2022-08-01T03:15:50;2.60;;;0.93;;
42018;SDS011;27703;51.980;5.848;2022-08-01T03:18:18;2.70;;;1.40;;
42018;SDS011;27703;51.980;5.848;2022-08-01T03:20:44;3.25;;;1.15;;
42018;SDS011;27703;51.980;5.848;2022-08-01T03:23:11;4.03;;;1.10;;
42018;SDS011;27703;51.980;5.848;2022-08-01T03:25:38;3.08;;;0.90;;
42018;SDS011;27703;51.980;5.848;2022-08-01T03:28:06;2.55;;;1.02;;
42018;SDS011;27703;51.980;5.848;2022-08-01T03:30:33;1.45;;;0.70;;
42018;SDS011;27703;51.980;5.848;2022-08-01T03:33:02;2.95;;;1.10;;
42018;SDS011;27703;51.980;5.848;2022-08-01T03:35:29;2.15;;;1.13;;
42018;SDS011;27703;51.980;5.848;2022-08-01T03:37:59;1.60;;;0.70;;
42018;SDS011;27703;51.980;5.848;2022-08-01T03:43:07;1.52;;;0.68;;
42018;SDS011;27703;51.980;5.848;2022-08-01T03:45:38;1.55;;;0.80;;
42018;SDS011;27703;51.980;5.848;2022-08-01T03:48:10;1.25;;;0.70;;
42018;SDS011;27703;51.980;5.848;2022-08-01T03:50:40;2.03;;;0.90;;
42018;SDS011;27703;51.980;5.848;2022-08-01T03:53:08;3.00;;;0.70;;
42018;SDS011;27703;51.980;5.848;2022-08-01T03:55:35;1.40;;;0.65;;
42018;SDS011;27703;51.980;5.848;2022-08-01T03:58:03;2.00;;;0.70;;
42018;SDS011;27703;51.980;5.848;2022-08-01T04:00:29;1.42;;;0.50;;
42018;SDS011;27703;51.980;5.848;2022-08-01T04:02:55;2.78;;;0.70;;
42018;SDS011;27703;51.980;5.848;2022-08-01T04:05:21;1.90;;;0.85;;
42018;SDS011;27703;51.980;5.848;2022-08-01T04:07:48;1.88;;;0.70;;
42018;SDS011;27703;51.980;5.848;2022-08-01T04:10:20;2.33;;;0.90;;
42018;SDS011;27703;51.980;5.848;2022-08-01T04:12:47;2.22;;;0.80;;
42018;SDS011;27703;51.980;5.848;2022-08-01T04:15:13;1.92;;;0.82;;
42018;SDS011;27703;51.980;5.848;2022-08-01T04:17:39;1.73;;;0.70;;
42018;SDS011;27703;51.980;5.848;2022-08-01T04:20:05;1.02;;;0.50;;
42018;SDS011;27703;51.980;5.848;2022-08-01T04:22:31;1.52;;;0.70;;
42018;SDS011;27703;51.980;5.848;2022-08-01T04:24:57;3.13;;;0.68;;
42018;SDS011;27703;51.980;5.848;2022-08-01T04:27:36;1.77;;;1.00;;
42018;SDS011;27703;51.980;5.848;2022-08-01T04:30:03;2.20;;;0.88;;
42018;SDS011;27703;51.980;5.848;2022-08-01T04:32:32;2.35;;;0.80;;
42018;SDS011;27703;51.980;5.848;2022-08-01T04:34:59;3.35;;;1.00;;
42018;SDS011;27703;51.980;5.848;2022-08-01T04:37:31;2.75;;;0.80;;
42018;SDS011;27703;51.980;5.848;2022-08-01T04:39:58;3.47;;;1.35;;
42018;SDS011;27703;51.980;5.848;2022-08-01T04:42:25;1.60;;;0.82;;
42018;SDS011;27703;51.980;5.848;2022-08-01T04:44:52;2.15;;;0.95;;
42018;SDS011;27703;51.980;5.848;2022-08-01T04:47:18;1.92;;;0.70;;
42018;SDS011;27703;51.980;5.848;2022-08-01T04:49:44;1.20;;;0.57;;
42018;SDS011;27703;51.980;5.848;2022-08-01T04:52:10;2.17;;;1.10;;
42018;SDS011;27703;51.980;5.848;2022-08-01T04:54:36;1.77;;;0.80;;
42018;SDS011;27703;51.980;5.848;2022-08-01T04:57:03;1.67;;;1.00;;
42018;SDS011;27703;51.980;5.848;2022-08-01T04:59:30;1.77;;;0.90;;
42018;SDS011;27703;51.980;5.848;2022-08-01T05:02:05;2.83;;;0.90;;
42018;SDS011;27703;51.980;5.848;2022-08-01T05:04:36;1.63;;;0.90;;
42018;SDS011;27703;51.980;5.848;2022-08-01T05:07:03;1.27;;;0.70;;
42018;SDS011;27703;51.980;5.848;2022-08-01T05:09:29;2.28;;;0.90;;
42018;SDS011;27703;51.980;5.848;2022-08-01T05:11:56;2.20;;;1.15;;
42018;SDS011;27703;51.980;5.848;2022-08-01T05:14:23;1.23;;;0.60;;
42018;SDS011;27703;51.980;5.848;2022-08-01T05:16:52;1.75;;;0.93;;
42018;SDS011;27703;51.980;5.848;2022-08-01T05:19:18;1.80;;;1.13;;
42018;SDS011;27703;51.980;5.848;2022-08-01T05:21:44;1.63;;;0.85;;
42018;SDS011;27703;51.980;5.848;2022-08-01T05:24:10;2.03;;;1.20;;
42018;SDS011;27703;51.980;5.848;2022-08-01T05:26:35;1.95;;;0.70;;
42018;SDS011;27703;51.980;5.848;2022-08-01T05:29:01;1.45;;;0.77;;
42018;SDS011;27703;51.980;5.848;2022-08-01T05:31:27;1.83;;;0.98;;
42018;SDS011;27703;51.980;5.848;2022-08-01T05:33:53;2.22;;;0.88;;
42018;SDS011;27703;51.980;5.848;2022-08-01T05:36:18;1.83;;;0.60;;
42018;SDS011;27703;51.980;5.848;2022-08-01T05:38:44;1.52;;;0.90;;
42018;SDS011;27703;51.980;5.848;2022-08-01T05:41:10;2.00;;;0.75;;
42018;SDS011;27703;51.980;5.848;2022-08-01T05:43:36;1.50;;;0.68;;
42018;SDS011;27703;51.980;5.848;2022-08-01T05:46:01;1.88;;;0.82;;
42018;SDS011;27703;51.980;5.848;2022-08-01T05:48:27;2.75;;;0.80;;
42018;SDS011;27703;51.980;5.848;2022-08-01T05:50:53;1.55;;;0.50;;
42018;SDS011;27703;51.980;5.848;2022-08-01T05:53:19;1.20;;;0.50;;
42018;SDS011;27703;51.980;5.848;2022-08-01T05:55:44;1.45;;;0.57;;
42018;SDS011;27703;51.980;5.848;2022-08-01T05:58:10;0.90;;;0.40;;
42018;SDS011;27703;51.980;5.848;2022-08-01T06:00:35;0.80;;;0.50;;
42018;SDS011;27703;51.980;5.848;2022-08-01T06:03:01;0.60;;;0.30;;
42018;SDS011;27703;51.980;5.848;2022-08-01T06:05:27;0.75;;;0.40;;
42018;SDS011;27703;51.980;5.848;2022-08-01T06:07:52;0.70;;;0.30;;
42018;SDS011;27703;51.980;5.848;2022-08-01T06:10:18;0.93;;;0.30;;
42018;SDS011;27703;51.980;5.848;2022-08-01T06:12:44;0.75;;;0.30;;
42018;SDS011;27703;51.980;5.848;2022-08-01T06:15:10;0.40;;;0.20;;
42018;SDS011;27703;51.980;5.848;2022-08-01T06:17:36;0.70;;;0.20;;
42018;SDS011;27703;51.980;5.848;2022-08-01T06:20:02;0.32;;;0.20;;
42018;SDS011;27703;51.980;5.848;2022-08-01T06:22:28;0.30;;;0.20;;
42018;SDS011;27703;51.980;5.848;2022-08-01T06:24:54;0.20;;;0.10;;
42018;SDS011;27703;51.980;5.848;2022-08-01T06:27:19;0.68;;;0.10;;
42018;SDS011;27703;51.980;5.848;2022-08-01T06:29:45;0.32;;;0.10;;
42018;SDS011;27703;51.980;5.848;2022-08-01T06:32:11;0.10;;;0.00;;
42018;SDS011;27703;51.980;5.848;2022-08-01T06:34:36;0.47;;;0.10;;
42018;SDS011;27703;51.980;5.848;2022-08-01T06:37:02;0.40;;;0.20;;
42018;SDS011;27703;51.980;5.848;2022-08-01T06:39:27;0.20;;;0.10;;
42018;SDS011;27703;51.980;5.848;2022-08-01T06:41:53;0.57;;;0.20;;
42018;SDS011;27703;51.980;5.848;2022-08-01T06:44:18;0.30;;;0.10;;
42018;SDS011;27703;51.980;5.848;2022-08-01T06:46:44;0.20;;;0.10;;
42018;SDS011;27703;51.980;5.848;2022-08-01T06:49:09;0.90;;;0.20;;
42018;SDS011;27703;51.980;5.848;2022-08-01T06:51:35;0.30;;;0.10;;
42018;SDS011;27703;51.980;5.848;2022-08-01T06:54:01;0.85;;;0.10;;
42018;SDS011;27703;51.980;5.848;2022-08-01T06:56:26;0.70;;;0.10;;
42018;SDS011;27703;51.980;5.848;2022-08-01T06:58:52;0.10;;;0.10;;
42018;SDS011;27703;51.980;5.848;2022-08-01T07:01:17;0.38;;;0.10;;
42018;SDS011;27703;51.980;5.848;2022-08-01T07:03:43;0.20;;;0.10;;
42018;SDS011;27703;51.980;5.848;2022-08-01T07:06:08;0.50;;;0.20;;
42018;SDS011;27703;51.980;5.848;2022-08-01T07:08:34;0.20;;;0.10;;
42018;SDS011;27703;51.980;5.848;2022-08-01T07:11:00;0.40;;;0.20;;
42018;SDS011;27703;51.980;5.848;2022-08-01T07:13:26;0.20;;;0.10;;
42018;SDS011;27703;51.980;5.848;2022-08-01T07:15:53;0.77;;;0.10;;
42018;SDS011;27703;51.980;5.848;2022-08-01T07:18:18;0.32;;;0.10;;
42018;SDS011;27703;51.980;5.848;2022-08-01T07:20:44;0.68;;;0.10;;
42018;SDS011;27703;51.980;5.848;2022-08-01T07:23:12;0.30;;;0.10;;
42018;SDS011;27703;51.980;5.848;2022-08-01T07:25:38;0.65;;;0.20;;
42018;SDS011;27703;51.980;5.848;2022-08-01T07:28:04;0.30;;;0.10;;
42018;SDS011;27703;51.980;5.848;2022-08-01T07:30:29;0.50;;;0.10;;
42018;SDS011;27703;51.980;5.848;2022-08-01T07:32:55;0.65;;;0.10;;
42018;SDS011;27703;51.980;5.848;2022-08-01T07:35:21;0.88;;;0.10;;
42018;SDS011;27703;51.980;5.848;2022-08-01T07:37:47;0.32;;;0.10;;
42018;SDS011;27703;51.980;5.848;2022-08-01T07:40:12;0.98;;;0.45;;
42018;SDS011;27703;51.980;5.848;2022-08-01T07:42:38;1.30;;;0.10;;
42018;SDS011;27703;51.980;5.848;2022-08-01T07:45:08;0.75;;;0.10;;
42018;SDS011;27703;51.980;5.848;2022-08-01T07:47:34;0.38;;;0.10;;
42018;SDS011;27703;51.980;5.848;2022-08-01T07:50:00;0.57;;;0.10;;
42018;SDS011;27703;51.980;5.848;2022-08-01T07:52:26;0.30;;;0.20;;
42018;SDS011;27703;51.980;5.848;2022-08-01T07:54:52;0.35;;;0.10;;
42018;SDS011;27703;51.980;5.848;2022-08-01T07:57:17;0.95;;;0.10;;
42018;SDS011;27703;51.980;5.848;2022-08-01T07:59:43;0.35;;;0.10;;
42018;SDS011;27703;51.980;5.848;2022-08-01T08:02:09;0.50;;;0.10;;
42018;SDS011;27703;51.980;5.848;2022-08-01T08:04:34;0.22;;;0.08;;
42018;SDS011;27703;51.980;5.848;2022-08-01T08:07:00;0.55;;;0.10;;
42018;SDS011;27703;51.980;5.848;2022-08-01T08:09:25;0.80;;;0.10;;
42018;SDS011;27703;51.980;5.848;2022-08-01T08:11:51;0.88;;;0.10;;
42018;SDS011;27703;51.980;5.848;2022-08-01T08:14:17;0.65;;;0.10;;
42018;SDS011;27703;51.980;5.848;2022-08-01T08:16:43;0.30;;;0.10;;
42018;SDS011;27703;51.980;5.848;2022-08-01T08:19:09;0.90;;;0.20;;
42018;SDS011;27703;51.980;5.848;2022-08-01T08:21:34;1.58;;;0.10;;
42018;SDS011;27703;51.980;5.848;2022-08-01T08:24:01;0.30;;;0.20;;
42018;SDS011;27703;51.980;5.848;2022-08-01T08:26:45;0.52;;;0.10;;
42018;SDS011;27703;51.980;5.848;2022-08-01T08:29:11;0.30;;;0.10;;
42018;SDS011;27703;51.980;5.848;2022-08-01T08:31:37;0.30;;;0.10;;
42018;SDS011;27703;51.980;5.848;2022-08-01T08:34:02;0.60;;;0.15;;
42018;SDS011;27703;51.980;5.848;2022-08-01T08:36:28;1.40;;;0.10;;
42018;SDS011;27703;51.980;5.848;2022-08-01T08:38:53;0.50;;;0.10;;
42018;SDS011;27703;51.980;5.848;2022-08-01T08:41:19;1.30;;;0.10;;
42018;SDS011;27703;51.980;5.848;2022-08-01T08:43:47;0.25;;;0.10;;
42018;SDS011;27703;51.980;5.848;2022-08-01T08:46:12;0.73;;;0.10;;
42018;SDS011;27703;51.980;5.848;2022-08-01T08:48:40;2.15;;;0.20;;
42018;SDS011;27703;51.980;5.848;2022-08-01T08:51:07;0.25;;;0.10;;
42018;SDS011;27703;51.980;5.848;2022-08-01T08:53:35;0.38;;;0.10;;
42018;SDS011;27703;51.980;5.848;2022-08-01T08:56:03;0.40;;;0.10;;
42018;SDS011;27703;51.980;5.848;2022-08-01T08:58:31;1.00;;;0.20;;
42018;SDS011;27703;51.980;5.848;2022-08-01T09:01:02;0.50;;;0.10;;
42018;SDS011;27703;51.980;5.848;2022-08-01T09:03:31;0.50;;;0.10;;
42018;SDS011;27703;51.980;5.848;2022-08-01T09:05:57;0.52;;;0.20;;
42018;SDS011;27703;51.980;5.848;2022-08-01T09:08:23;4.78;;;0.20;;
42018;SDS011;27703;51.980;5.848;2022-08-01T09:10:48;0.30;;;0.10;;
42018;SDS011;27703;51.980;5.848;2022-08-01T09:13:14;2.28;;;0.20;;
42018;SDS011;27703;51.980;5.848;2022-08-01T09:15:44;1.00;;;0.13;;
42018;SDS011;27703;51.980;5.848;2022-08-01T09:21:18;0.40;;;0.10;;
42018;SDS011;27703;51.980;5.848;2022-08-01T09:23:48;0.57;;;0.10;;
42018;SDS011;27703;51.980;5.848;2022-08-01T09:26:19;1.17;;;0.10;;
42018;SDS011;27703;51.980;5.848;2022-08-01T09:29:06;2.72;;;0.25;;
42018;SDS011;27703;51.980;5.848;2022-08-01T09:31:42;0.50;;;0.10;;
42018;SDS011;27703;51.980;5.848;2022-08-01T09:34:08;0.60;;;0.20;;
42018;SDS011;27703;51.980;5.848;2022-08-01T09:39:24;0.43;;;0.20;;
42018;SDS011;27703;51.980;5.848;2022-08-01T09:41:52;0.73;;;0.20;;
42018;SDS011;27703;51.980;5.848;2022-08-01T09:44:19;1.98;;;0.20;;
42018;SDS011;27703;51.980;5.848;2022-08-01T09:47:01;0.47;;;0.20;;
42018;SDS011;27703;51.980;5.848;2022-08-01T09:49:31;1.75;;;0.20;;
42018;SDS011;27703;51.980;5.848;2022-08-01T09:52:00;1.38;;;0.30;;
42018;SDS011;27703;51.980;5.848;2022-08-01T09:54:39;0.90;;;0.20;;
42018;SDS011;27703;51.980;5.848;2022-08-01T09:57:13;0.50;;;0.20;;
42018;SDS011;27703;51.980;5.848;2022-08-01T09:59:42;0.70;;;0.20;;
42018;SDS011;27703;51.980;5.848;2022-08-01T10:02:09;2.28;;;0.30;;
42018;SDS011;27703;51.980;5.848;2022-08-01T10:04:45;2.15;;;0.30;;
42018;SDS011;27703;51.980;5.848;2022-08-01T10:07:12;2.08;;;0.30;;
42018;SDS011;27703;51.980;5.848;2022-08-01T10:09:40;0.88;;;0.20;;
42018;SDS011;27703;51.980;5.848;2022-08-01T10:12:05;2.83;;;0.30;;
42018;SDS011;27703;51.980;5.848;2022-08-01T10:14:31;1.50;;;0.30;;
42018;SDS011;27703;51.980;5.848;2022-08-01T10:16:58;2.08;;;0.40;;
42018;SDS011;27703;51.980;5.848;2022-08-01T10:19:25;1.67;;;0.40;;
42018;SDS011;27703;51.980;5.848;2022-08-01T10:21:52;2.17;;;0.40;;
42018;SDS011;27703;51.980;5.848;2022-08-01T10:24:20;2.33;;;0.40;;
42018;SDS011;27703;51.980;5.848;2022-08-01T10:26:51;2.72;;;0.40;;
42018;SDS011;27703;51.980;5.848;2022-08-01T10:29:20;2.28;;;0.30;;
42018;SDS011;27703;51.980;5.848;2022-08-01T10:31:46;2.17;;;0.40;;
42018;SDS011;27703;51.980;5.848;2022-08-01T10:34:12;2.25;;;0.50;;
42018;SDS011;27703;51.980;5.848;2022-08-01T10:36:47;5.63;;;0.50;;
42018;SDS011;27703;51.980;5.848;2022-08-01T10:39:14;1.33;;;0.40;;
42018;SDS011;27703;51.980;5.848;2022-08-01T10:41:40;2.35;;;0.32;;
42018;SDS011;27703;51.980;5.848;2022-08-01T10:44:06;4.57;;;0.38;;
42018;SDS011;27703;51.980;5.848;2022-08-01T10:46:38;1.98;;;0.52;;
42018;SDS011;27703;51.980;5.848;2022-08-01T10:49:09;2.17;;;0.40;;
42018;SDS011;27703;51.980;5.848;2022-08-01T10:51:38;2.13;;;0.35;;
42018;SDS011;27703;51.980;5.848;2022-08-01T10:54:08;0.77;;;0.20;;
42018;SDS011;27703;51.980;5.848;2022-08-01T10:56:45;2.47;;;0.50;;
42018;SDS011;27703;51.980;5.848;2022-08-01T10:59:20;3.22;;;0.40;;
42018;SDS011;27703;51.980;5.848;2022-08-01T11:04:49;3.00;;;0.40;;
42018;SDS011;27703;51.980;5.848;2022-08-01T11:07:21;1.98;;;0.30;;
42018;SDS011;27703;51.980;5.848;2022-08-01T11:10:09;1.52;;;0.40;;
42018;SDS011;27703;51.980;5.848;2022-08-01T11:12:41;2.28;;;0.32;;
42018;SDS011;27703;51.980;5.848;2022-08-01T11:17:39;1.67;;;0.30;;
42018;SDS011;27703;51.980;5.848;2022-08-01T11:25:26;1.08;;;0.30;;
42018;SDS011;27703;51.980;5.848;2022-08-01T11:33:18;2.33;;;0.40;;
42018;SDS011;27703;51.980;5.848;2022-08-01T11:38:37;2.95;;;0.32;;
42018;SDS011;27703;51.980;5.848;2022-08-01T11:41:13;1.00;;;0.43;;
42018;SDS011;27703;51.980;5.848;2022-08-01T11:51:56;3.17;;;0.30;;
42018;SDS011;27703;51.980;5.848;2022-08-01T11:54:27;1.23;;;0.30;;
42018;SDS011;27703;51.980;5.848;2022-08-01T11:57:04;1.85;;;0.22;;
42018;SDS011;27703;51.980;5.848;2022-08-01T11:59:38;0.68;;;0.20;;
42018;SDS011;27703;51.980;5.848;2022-08-01T12:07:30;0.93;;;0.52;;
42018;SDS011;27703;51.980;5.848;2022-08-01T12:10:02;1.77;;;0.28;;
42018;SDS011;27703;51.980;5.848;2022-08-01T12:12:35;0.90;;;0.20;;
42018;SDS011;27703;51.980;5.848;2022-08-01T12:15:06;2.25;;;0.30;;
42018;SDS011;27703;51.980;5.848;2022-08-01T12:20:04;2.15;;;0.52;;
42018;SDS011;27703;51.980;5.848;2022-08-01T12:22:31;2.47;;;0.30;;
42018;SDS011;27703;51.980;5.848;2022-08-01T12:25:04;0.77;;;0.20;;
42018;SDS011;27703;51.980;5.848;2022-08-01T12:27:34;2.00;;;0.30;;
42018;SDS011;27703;51.980;5.848;2022-08-01T12:30:00;1.20;;;0.20;;
42018;SDS011;27703;51.980;5.848;2022-08-01T12:32:30;3.08;;;0.20;;
42018;SDS011;27703;51.980;5.848;2022-08-01T12:35:11;1.45;;;0.28;;
42018;SDS011;27703;51.980;5.848;2022-08-01T12:37:37;0.80;;;0.20;;
42018;SDS011;27703;51.980;5.848;2022-08-01T12:40:09;1.23;;;0.20;;
42018;SDS011;27703;51.980;5.848;2022-08-01T12:42:37;1.58;;;0.20;;
42018;SDS011;27703;51.980;5.848;2022-08-01T12:45:05;2.83;;;0.30;;
42018;SDS011;27703;51.980;5.848;2022-08-01T12:47:38;0.75;;;0.30;;
42018;SDS011;27703;51.980;5.848;2022-08-01T12:50:06;4.22;;;0.30;;
42018;SDS011;27703;51.980;5.848;2022-08-01T12:52:35;0.77;;;0.20;;
42018;SDS011;27703;51.980;5.848;2022-08-01T12:55:06;4.20;;;0.40;;
42018;SDS011;27703;51.980;5.848;2022-08-01T12:57:37;1.15;;;0.20;;
42018;SDS011;27703;51.980;5.848;2022-08-01T13:00:09;2.00;;;0.30;;
42018;SDS011;27703;51.980;5.848;2022-08-01T13:02:35;1.23;;;0.30;;
42018;SDS011;27703;51.980;5.848;2022-08-01T13:05:01;1.73;;;0.30;;
42018;SDS011;27703;51.980;5.848;2022-08-01T13:07:50;2.25;;;0.22;;
42018;SDS011;27703;51.980;5.848;2022-08-01T13:10:26;0.57;;;0.20;;
42018;SDS011;27703;51.980;5.848;2022-08-01T13:12:55;1.40;;;0.30;;
42018;SDS011;27703;51.980;5.848;2022-08-01T13:15:27;1.52;;;0.25;;
42018;SDS011;27703;51.980;5.848;2022-08-01T13:17:57;2.42;;;0.20;;
42018;SDS011;27703;51.980;5.848;2022-08-01T13:20:32;0.88;;;0.22;;
42018;SDS011;27703;51.980;5.848;2022-08-01T13:23:18;1.58;;;0.30;;
42018;SDS011;27703;51.980;5.848;2022-08-01T13:25:48;1.25;;;0.25;;
42018;SDS011;27703;51.980;5.848;2022-08-01T13:28:19;2.63;;;0.20;;
42018;SDS011;27703;51.980;5.848;2022-08-01T13:30:53;2.50;;;0.20;;
42018;SDS011;27703;51.980;5.848;2022-08-01T13:33:45;2.73;;;0.20;;
42018;SDS011;27703;51.980;5.848;2022-08-01T13:36:12;2.72;;;0.30;;
42018;SDS011;27703;51.980;5.848;2022-08-01T13:38:39;1.92;;;0.22;;
42018;SDS011;27703;51.980;5.848;2022-08-01T13:41:24;0.88;;;0.20;;
42018;SDS011;27703;51.980;5.848;2022-08-01T13:43:50;2.05;;;0.20;;
42018;SDS011;27703;51.980;5.848;2022-08-01T13:46:16;1.08;;;0.17;;
42018;SDS011;27703;51.980;5.848;2022-08-01T13:48:42;1.20;;;0.20;;
42018;SDS011;27703;51.980;5.848;2022-08-01T13:51:07;3.80;;;0.38;;
42018;SDS011;27703;51.980;5.848;2022-08-01T13:53:33;1.55;;;0.20;;
42018;SDS011;27703;51.980;5.848;2022-08-01T13:55:59;4.40;;;0.30;;
42018;SDS011;27703;51.980;5.848;2022-08-01T13:58:24;3.92;;;0.20;;
42018;SDS011;27703;51.980;5.848;2022-08-01T14:00:50;2.88;;;0.28;;
42018;SDS011;27703;51.980;5.848;2022-08-01T14:03:15;2.92;;;0.30;;
42018;SDS011;27703;51.980;5.848;2022-08-01T14:05:44;1.38;;;0.30;;
42018;SDS011;27703;51.980;5.848;2022-08-01T14:08:11;1.67;;;0.22;;
42018;SDS011;27703;51.980;5.848;2022-08-01T14:10:39;1.98;;;0.20;;
42018;SDS011;27703;51.980;5.848;2022-08-01T14:13:04;0.77;;;0.20;;
42018;SDS011;27703;51.980;5.848;2022-08-01T14:15:30;4.03;;;0.13;;
42018;SDS011;27703;51.980;5.848;2022-08-01T14:17:57;0.63;;;0.20;;
42018;SDS011;27703;51.980;5.848;2022-08-01T14:20:23;1.60;;;0.10;;
42018;SDS011;27703;51.980;5.848;2022-08-01T14:22:48;1.80;;;0.20;;
42018;SDS011;27703;51.980;5.848;2022-08-01T14:25:14;1.00;;;0.20;;
42018;SDS011;27703;51.980;5.848;2022-08-01T14:27:40;0.63;;;0.10;;
42018;SDS011;27703;51.980;5.848;2022-08-01T14:30:06;1.10;;;0.20;;
42018;SDS011;27703;51.980;5.848;2022-08-01T14:32:32;2.20;;;0.20;;
42018;SDS011;27703;51.980;5.848;2022-08-01T14:34:58;1.40;;;0.20;;
42018;SDS011;27703;51.980;5.848;2022-08-01T14:37:25;0.95;;;0.10;;
42018;SDS011;27703;51.980;5.848;2022-08-01T14:39:50;2.40;;;0.25;;
42018;SDS011;27703;51.980;5.848;2022-08-01T14:42:16;0.52;;;0.10;;
42018;SDS011;27703;51.980;5.848;2022-08-01T14:44:41;1.50;;;0.10;;
42018;SDS011;27703;51.980;5.848;2022-08-01T14:47:07;0.70;;;0.10;;
42018;SDS011;27703;51.980;5.848;2022-08-01T14:49:33;0.52;;;0.10;;
42018;SDS011;27703;51.980;5.848;2022-08-01T14:51:58;0.82;;;0.10;;
42018;SDS011;27703;51.980;5.848;2022-08-01T14:54:24;1.27;;;0.10;;
42018;SDS011;27703;51.980;5.848;2022-08-01T14:56:49;1.58;;;0.50;;
42018;SDS011;27703;51.980;5.848;2022-08-01T14:59:17;4.47;;;0.20;;
42018;SDS011;27703;51.980;5.848;2022-08-01T15:01:43;1.27;;;0.10;;
42018;SDS011;27703;51.980;5.848;2022-08-01T15:04:08;2.05;;;0.13;;
42018;SDS011;27703;51.980;5.848;2022-08-01T15:06:34;0.65;;;0.17;;
42018;SDS011;27703;51.980;5.848;2022-08-01T15:09:00;0.90;;;0.10;;
42018;SDS011;27703;51.980;5.848;2022-08-01T15:11:25;0.60;;;0.10;;
42018;SDS011;27703;51.980;5.848;2022-08-01T15:13:51;0.30;;;0.10;;
42018;SDS011;27703;51.980;5.848;2022-08-01T15:16:36;0.77;;;0.10;;
42018;SDS011;27703;51.980;5.848;2022-08-01T15:19:02;2.00;;;0.20;;
42018;SDS011;27703;51.980;5.848;2022-08-01T15:21:28;0.98;;;0.10;;
42018;SDS011;27703;51.980;5.848;2022-08-01T15:23:53;1.65;;;0.10;;
42018;SDS011;27703;51.980;5.848;2022-08-01T15:26:19;0.43;;;0.10;;
42018;SDS011;27703;51.980;5.848;2022-08-01T15:28:44;0.52;;;0.10;;
42018;SDS011;27703;51.980;5.848;2022-08-01T15:31:10;0.77;;;0.10;;
42018;SDS011;27703;51.980;5.848;2022-08-01T15:33:38;0.80;;;0.10;;
42018;SDS011;27703;51.980;5.848;2022-08-01T15:36:04;1.02;;;0.10;;
42018;SDS011;27703;51.980;5.848;2022-08-01T15:38:32;0.55;;;0.00;;
42018;SDS011;27703;51.980;5.848;2022-08-01T15:40:58;0.50;;;0.10;;
42018;SDS011;27703;51.980;5.848;2022-08-01T15:43:24;0.60;;;0.10;;
42018;SDS011;27703;51.980;5.848;2022-08-01T15:45:50;1.10;;;0.13;;